sensor_id;sensor_type;location;lat;lon;timestamp;pressure;altitude;pressure_sealevel;temperature;humidity
71105;BME280;58760;48.716;8.962;2023-03-18T00:00:46;96024.22;;;9.30;62.70
71105;BME280;58760;48.716;8.962;2023-03-18T00:03:11;96016.94;;;9.32;64.94
71105;BME280;58760;48.716;8.962;2023-03-18T00:05:37;96032.69;;;9.25;66.11
71105;BME280;58760;48.716;8.962;2023-03-18T00:08:04;96026.81;;;9.15;66.90
71105;BME280;58760;48.716;8.962;2023-03-18T00:10:31;96023.22;;;9.08;66.91
71105;BME280;58760;48.716;8.962;2023-03-18T00:12:57;96037.78;;;9.04;67.52
71105;BME280;58760;48.716;8.962;2023-03-18T00:15:23;96031.94;;;8.94;67.73
71105;BME280;58760;48.716;8.962;2023-03-18T00:17:49;96038.38;;;8.91;65.52
71105;BME280;58760;48.716;8.962;2023-03-18T00:20:15;96048.34;;;9.35;61.63
71105;BME280;58760;48.716;8.962;2023-03-18T00:22:42;96043.34;;;9.77;60.19
71105;BME280;58760;48.716;8.962;2023-03-18T00:25:11;96052.59;;;9.81;60.07
71105;BME280;58760;48.716;8.962;2023-03-18T00:27:37;96050.69;;;9.75;60.37
71105;BME280;58760;48.716;8.962;2023-03-18T00:30:03;96047.56;;;9.72;59.99
71105;BME280;58760;48.716;8.962;2023-03-18T00:32:29;96055.72;;;9.85;58.68
71105;BME280;58760;48.716;8.962;2023-03-18T00:34:56;96053.28;;;9.98;58.48
71105;BME280;58760;48.716;8.962;2023-03-18T00:37:22;96048.69;;;10.07;58.66
71105;BME280;58760;48.716;8.962;2023-03-18T00:40:09;96065.03;;;9.81;59.46
71105;BME280;58760;48.716;8.962;2023-03-18T00:42:38;96064.25;;;10.10;58.98
71105;BME280;58760;48.716;8.962;2023-03-18T00:45:12;96061.22;;;10.13;59.18
71105;BME280;58760;48.716;8.962;2023-03-18T00:47:37;96063.03;;;9.97;59.98
71105;BME280;58760;48.716;8.962;2023-03-18T00:50:05;96071.78;;;9.83;59.61
71105;BME280;58760;48.716;8.962;2023-03-18T00:52:31;96063.47;;;9.86;59.52
71105;BME280;58760;48.716;8.962;2023-03-18T00:54:58;96062.38;;;9.95;58.50
71105;BME280;58760;48.716;8.962;2023-03-18T00:57:24;96066.13;;;9.86;59.09
71105;BME280;58760;48.716;8.962;2023-03-18T00:59:49;96069.34;;;9.96;59.00
71105;BME280;58760;48.716;8.962;2023-03-18T01:02:15;96073.38;;;10.07;58.96
71105;BME280;58760;48.716;8.962;2023-03-18T01:04:41;96071.88;;;9.75;59.95
71105;BME280;58760;48.716;8.962;2023-03-18T01:07:07;96072.72;;;9.90;59.90
71105;BME280;58760;48.716;8.962;2023-03-18T01:09:33;96076.19;;;9.91;60.30
71105;BME280;58760;48.716;8.962;2023-03-18T01:11:58;96076.00;;;9.92;60.59
71105;BME280;58760;48.716;8.962;2023-03-18T01:14:24;96081.34;;;9.70;61.63
71105;BME280;58760;48.716;8.962;2023-03-18T01:16:49;96081.81;;;9.51;62.37
71105;BME280;58760;48.716;8.962;2023-03-18T01:19:15;96074.75;;;9.43;63.01
71105;BME280;58760;48.716;8.962;2023-03-18T01:21:40;96068.94;;;9.25;63.33
71105;BME280;58760;48.716;8.962;2023-03-18T01:24:06;96065.09;;;9.27;63.12
71105;BME280;58760;48.716;8.962;2023-03-18T01:26:31;96067.81;;;9.19;63.19
71105;BME280;58760;48.716;8.962;2023-03-18T01:28:57;96064.16;;;9.20;63.40
71105;BME280;58760;48.716;8.962;2023-03-18T01:31:23;96069.16;;;9.15;63.24
71105;BME280;58760;48.716;8.962;2023-03-18T01:33:50;96070.59;;;9.26;62.96
71105;BME280;58760;48.716;8.962;2023-03-18T01:36:16;96062.69;;;9.18;62.91
71105;BME280;58760;48.716;8.962;2023-03-18T01:38:42;96068.53;;;9.13;62.87
71105;BME280;58760;48.716;8.962;2023-03-18T01:41:08;96068.19;;;9.16;63.19
71105;BME280;58760;48.716;8.962;2023-03-18T01:43:37;96055.81;;;9.09;63.11
71105;BME280;58760;48.716;8.962;2023-03-18T01:48:49;96064.56;;;9.09;62.63
71105;BME280;58760;48.716;8.962;2023-03-18T01:51:17;96068.56;;;9.05;63.10
71105;BME280;58760;48.716;8.962;2023-03-18T01:53:46;96063.97;;;8.99;63.19
71105;BME280;58760;48.716;8.962;2023-03-18T01:56:13;96063.91;;;9.07;63.69
71105;BME280;58760;48.716;8.962;2023-03-18T01:58:42;96055.97;;;9.07;63.20
71105;BME280;58760;48.716;8.962;2023-03-18T02:01:16;96051.22;;;9.03;63.12
71105;BME280;58760;48.716;8.962;2023-03-18T02:03:43;96058.63;;;9.07;63.27
71105;BME280;58760;48.716;8.962;2023-03-18T02:06:10;96058.63;;;9.07;62.70
71105;BME280;58760;48.716;8.962;2023-03-18T02:08:37;96050.38;;;9.02;61.92
71105;BME280;58760;48.716;8.962;2023-03-18T02:11:05;96050.69;;;9.07;61.00
71105;BME280;58760;48.716;8.962;2023-03-18T02:13:30;96047.53;;;9.34;59.63
71105;BME280;58760;48.716;8.962;2023-03-18T02:16:00;96050.75;;;9.44;59.23
71105;BME280;58760;48.716;8.962;2023-03-18T02:18:37;96061.00;;;9.48;58.50
71105;BME280;58760;48.716;8.962;2023-03-18T02:29:06;96059.78;;;9.73;56.92
71105;BME280;58760;48.716;8.962;2023-03-18T02:31:35;96057.31;;;9.71;56.80
71105;BME280;58760;48.716;8.962;2023-03-18T02:34:00;96051.66;;;9.74;56.44
71105;BME280;58760;48.716;8.962;2023-03-18T02:36:28;96058.16;;;9.72;57.87
71105;BME280;58760;48.716;8.962;2023-03-18T02:38:56;96055.16;;;9.75;57.70
71105;BME280;58760;48.716;8.962;2023-03-18T02:41:27;96068.66;;;9.42;59.35
71105;BME280;58760;48.716;8.962;2023-03-18T02:43:54;96064.50;;;9.17;60.09
71105;BME280;58760;48.716;8.962;2023-03-18T02:48:56;96069.88;;;8.78;63.37
71105;BME280;58760;48.716;8.962;2023-03-18T02:51:22;96070.41;;;8.66;63.35
71105;BME280;58760;48.716;8.962;2023-03-18T02:53:48;96071.44;;;8.65;62.67
71105;BME280;58760;48.716;8.962;2023-03-18T02:56:14;96059.16;;;8.72;62.56
71105;BME280;58760;48.716;8.962;2023-03-18T02:58:40;96058.81;;;8.75;62.11
71105;BME280;58760;48.716;8.962;2023-03-18T03:01:07;96054.69;;;8.72;62.08
71105;BME280;58760;48.716;8.962;2023-03-18T03:03:33;96076.38;;;8.68;62.99
71105;BME280;58760;48.716;8.962;2023-03-18T03:05:59;96068.47;;;8.60;62.23
71105;BME280;58760;48.716;8.962;2023-03-18T03:08:26;96074.25;;;8.63;62.72
71105;BME280;58760;48.716;8.962;2023-03-18T03:10:52;96078.19;;;8.67;62.22
71105;BME280;58760;48.716;8.962;2023-03-18T03:13:18;96065.13;;;8.66;62.34
71105;BME280;58760;48.716;8.962;2023-03-18T03:15:44;96070.41;;;8.66;62.42
71105;BME280;58760;48.716;8.962;2023-03-18T03:18:10;96086.69;;;8.55;62.17
71105;BME280;58760;48.716;8.962;2023-03-18T03:20:36;96091.34;;;8.36;64.29
71105;BME280;58760;48.716;8.962;2023-03-18T03:23:13;96085.09;;;8.29;64.01
71105;BME280;58760;48.716;8.962;2023-03-18T03:25:40;96089.06;;;8.25;64.41
71105;BME280;58760;48.716;8.962;2023-03-18T03:28:06;96083.97;;;8.08;65.94
71105;BME280;58760;48.716;8.962;2023-03-18T03:30:32;96080.53;;;7.91;67.82
71105;BME280;58760;48.716;8.962;2023-03-18T03:32:59;96089.31;;;7.83;67.05
71105;BME280;58760;48.716;8.962;2023-03-18T03:35:26;96092.94;;;7.82;65.87
71105;BME280;58760;48.716;8.962;2023-03-18T03:37:51;96095.41;;;7.76;68.44
71105;BME280;58760;48.716;8.962;2023-03-18T03:40:18;96088.31;;;7.68;69.71
71105;BME280;58760;48.716;8.962;2023-03-18T03:42:44;96090.78;;;7.70;68.87
71105;BME280;58760;48.716;8.962;2023-03-18T03:45:12;96093.25;;;7.71;68.29
71105;BME280;58760;48.716;8.962;2023-03-18T03:47:38;96094.72;;;7.74;67.66
71105;BME280;58760;48.716;8.962;2023-03-18T03:50:04;96090.28;;;7.74;66.55
71105;BME280;58760;48.716;8.962;2023-03-18T03:52:30;96094.28;;;7.70;68.12
71105;BME280;58760;48.716;8.962;2023-03-18T03:54:56;96087.16;;;7.71;67.07
71105;BME280;58760;48.716;8.962;2023-03-18T03:57:22;96088.31;;;7.68;67.16
71105;BME280;58760;48.716;8.962;2023-03-18T03:59:51;96091.28;;;7.65;65.80
71105;BME280;58760;48.716;8.962;2023-03-18T04:02:17;96090.94;;;7.68;66.07
71105;BME280;58760;48.716;8.962;2023-03-18T04:04:43;96097.06;;;7.69;67.20
71105;BME280;58760;48.716;8.962;2023-03-18T04:07:11;96095.75;;;7.57;69.12
71105;BME280;58760;48.716;8.962;2023-03-18T04:09:37;96091.78;;;7.53;67.27
71105;BME280;58760;48.716;8.962;2023-03-18T04:12:03;96087.47;;;7.52;66.47
71105;BME280;58760;48.716;8.962;2023-03-18T04:14:29;96099.38;;;7.48;67.04
71105;BME280;58760;48.716;8.962;2023-03-18T04:16:55;96100.66;;;7.35;68.37
71105;BME280;58760;48.716;8.962;2023-03-18T04:19:23;96108.59;;;7.27;68.29
71105;BME280;58760;48.716;8.962;2023-03-18T04:21:49;96101.97;;;7.23;68.49
71105;BME280;58760;48.716;8.962;2023-03-18T04:24:15;96100.00;;;7.17;68.85
71105;BME280;58760;48.716;8.962;2023-03-18T04:26:41;96096.53;;;7.17;68.46
71105;BME280;58760;48.716;8.962;2023-03-18T04:29:07;96099.31;;;7.15;68.69
71105;BME280;58760;48.716;8.962;2023-03-18T04:31:33;96097.34;;;7.17;67.90
71105;BME280;58760;48.716;8.962;2023-03-18T04:33:58;96105.44;;;7.24;67.85
71105;BME280;58760;48.716;8.962;2023-03-18T04:36:24;96098.00;;;7.19;67.85
71105;BME280;58760;48.716;8.962;2023-03-18T04:38:49;96099.63;;;7.12;69.30
71105;BME280;58760;48.716;8.962;2023-03-18T04:41:15;96101.13;;;6.99;70.31
71105;BME280;58760;48.716;8.962;2023-03-18T04:43:41;96099.44;;;6.90;70.44
71105;BME280;58760;48.716;8.962;2023-03-18T04:46:07;96106.50;;;6.81;69.60
71105;BME280;58760;48.716;8.962;2023-03-18T04:48:33;96108.13;;;6.74;70.71
71105;BME280;58760;48.716;8.962;2023-03-18T04:50:59;96104.03;;;6.79;69.96
71105;BME280;58760;48.716;8.962;2023-03-18T04:53:24;96110.63;;;6.83;69.44
71105;BME280;58760;48.716;8.962;2023-03-18T04:55:50;96111.31;;;6.86;69.41
71105;BME280;58760;48.716;8.962;2023-03-18T04:58:16;96106.84;;;6.86;69.73
71105;BME280;58760;48.716;8.962;2023-03-18T05:00:41;96107.16;;;6.83;69.81
71105;BME280;58760;48.716;8.962;2023-03-18T05:03:08;96111.63;;;6.82;70.03
71105;BME280;58760;48.716;8.962;2023-03-18T05:05:33;96102.00;;;6.73;70.02
71105;BME280;58760;48.716;8.962;2023-03-18T05:08:00;96114.69;;;6.70;70.69
71105;BME280;58760;48.716;8.962;2023-03-18T05:10:25;96113.72;;;6.71;69.86
71105;BME280;58760;48.716;8.962;2023-03-18T05:12:50;96110.13;;;6.80;69.73
71105;BME280;58760;48.716;8.962;2023-03-18T05:15:16;96114.75;;;6.86;68.85
71105;BME280;58760;48.716;8.962;2023-03-18T05:17:41;96109.47;;;6.86;68.94
71105;BME280;58760;48.716;8.962;2023-03-18T05:20:08;96109.19;;;6.89;69.01
71105;BME280;58760;48.716;8.962;2023-03-18T05:22:34;96108.84;;;6.92;68.88
71105;BME280;58760;48.716;8.962;2023-03-18T05:25:00;96117.22;;;6.88;69.16
71105;BME280;58760;48.716;8.962;2023-03-18T05:27:26;96126.25;;;6.77;69.76
71105;BME280;58760;48.716;8.962;2023-03-18T05:29:52;96119.66;;;6.73;70.06
71105;BME280;58760;48.716;8.962;2023-03-18T05:32:18;96125.22;;;6.70;69.68
71105;BME280;58760;48.716;8.962;2023-03-18T05:34:44;96121.44;;;6.64;70.24
71105;BME280;58760;48.716;8.962;2023-03-18T05:37:12;96115.50;;;6.62;70.35
71105;BME280;58760;48.716;8.962;2023-03-18T05:39:38;96121.22;;;6.58;70.41
71105;BME280;58760;48.716;8.962;2023-03-18T05:42:04;96124.84;;;6.57;69.99
71105;BME280;58760;48.716;8.962;2023-03-18T05:44:29;96126.69;;;6.56;70.05
71105;BME280;58760;48.716;8.962;2023-03-18T05:46:55;96129.84;;;6.60;69.53
71105;BME280;58760;48.716;8.962;2023-03-18T05:49:21;96128.03;;;6.68;69.31
71105;BME280;58760;48.716;8.962;2023-03-18T05:51:48;96126.06;;;6.70;69.03
71105;BME280;58760;48.716;8.962;2023-03-18T05:54:14;96129.38;;;6.72;68.72
71105;BME280;58760;48.716;8.962;2023-03-18T05:56:41;96122.31;;;6.81;68.51
71105;BME280;58760;48.716;8.962;2023-03-18T05:59:08;96120.34;;;6.83;68.48
71105;BME280;58760;48.716;8.962;2023-03-18T06:01:35;96116.75;;;6.92;67.75
71105;BME280;58760;48.716;8.962;2023-03-18T06:04:02;96120.91;;;7.03;67.38
71105;BME280;58760;48.716;8.962;2023-03-18T06:06:27;96124.06;;;7.14;66.38
71105;BME280;58760;48.716;8.962;2023-03-18T06:08:53;96128.34;;;7.07;66.27
71105;BME280;58760;48.716;8.962;2023-03-18T06:11:20;96119.94;;;7.12;66.32
71105;BME280;58760;48.716;8.962;2023-03-18T06:13:46;96132.09;;;6.97;67.27
71105;BME280;58760;48.716;8.962;2023-03-18T06:16:11;96139.34;;;6.95;67.88
71105;BME280;58760;48.716;8.962;2023-03-18T06:18:38;96131.84;;;6.74;70.40
71105;BME280;58760;48.716;8.962;2023-03-18T06:21:07;96132.75;;;6.57;70.55
71105;BME280;58760;48.716;8.962;2023-03-18T06:23:34;96142.94;;;6.44;71.31
71105;BME280;58760;48.716;8.962;2023-03-18T06:26:00;96142.09;;;6.43;71.72
71105;BME280;58760;48.716;8.962;2023-03-18T06:28:26;96139.59;;;6.34;71.50
71105;BME280;58760;48.716;8.962;2023-03-18T06:30:54;96144.66;;;6.27;71.63
71105;BME280;58760;48.716;8.962;2023-03-18T06:33:21;96149.41;;;6.23;72.91
71105;BME280;58760;48.716;8.962;2023-03-18T06:35:47;96139.69;;;6.24;73.61
71105;BME280;58760;48.716;8.962;2023-03-18T06:38:13;96144.16;;;6.31;73.33
71105;BME280;58760;48.716;8.962;2023-03-18T06:40:41;96147.84;;;6.39;71.96
71105;BME280;58760;48.716;8.962;2023-03-18T06:43:06;96141.09;;;6.44;71.44
71105;BME280;58760;48.716;8.962;2023-03-18T06:45:31;96140.66;;;6.57;71.71
71105;BME280;58760;48.716;8.962;2023-03-18T06:47:57;96139.75;;;6.66;71.38
71105;BME280;58760;48.716;8.962;2023-03-18T06:50:24;96146.53;;;6.76;70.68
71105;BME280;58760;48.716;8.962;2023-03-18T06:52:50;96142.13;;;6.93;69.69
71105;BME280;58760;48.716;8.962;2023-03-18T06:55:15;96139.41;;;7.11;69.18
71105;BME280;58760;48.716;8.962;2023-03-18T06:57:41;96142.06;;;7.27;68.62
71105;BME280;58760;48.716;8.962;2023-03-18T07:00:07;96138.94;;;7.40;68.31
71105;BME280;58760;48.716;8.962;2023-03-18T07:02:33;96138.13;;;7.55;68.04
71105;BME280;58760;48.716;8.962;2023-03-18T07:04:58;96145.59;;;7.76;67.64
71105;BME280;58760;48.716;8.962;2023-03-18T07:07:24;96145.56;;;7.84;67.33
71105;BME280;58760;48.716;8.962;2023-03-18T07:09:49;96143.94;;;7.91;66.55
71105;BME280;58760;48.716;8.962;2023-03-18T07:12:15;96137.47;;;8.18;66.47
71105;BME280;58760;48.716;8.962;2023-03-18T07:14:40;96144.19;;;8.53;65.55
71105;BME280;58760;48.716;8.962;2023-03-18T07:17:06;96139.47;;;8.79;64.39
71105;BME280;58760;48.716;8.962;2023-03-18T07:19:31;96140.09;;;8.89;64.37
71105;BME280;58760;48.716;8.962;2023-03-18T07:21:58;96151.09;;;9.01;64.38
71105;BME280;58760;48.716;8.962;2023-03-18T07:24:24;96154.56;;;9.09;63.81
71105;BME280;58760;48.716;8.962;2023-03-18T07:26:50;96151.56;;;9.12;63.79
71105;BME280;58760;48.716;8.962;2023-03-18T07:29:17;96157.81;;;9.19;63.80
71105;BME280;58760;48.716;8.962;2023-03-18T07:31:42;96157.38;;;9.38;63.91
71105;BME280;58760;48.716;8.962;2023-03-18T07:34:08;96155.38;;;9.40;64.93
71105;BME280;58760;48.716;8.962;2023-03-18T07:36:34;96158.34;;;9.68;64.01
71105;BME280;58760;48.716;8.962;2023-03-18T07:39:02;96153.22;;;9.67;64.05
71105;BME280;58760;48.716;8.962;2023-03-18T07:41:27;96159.22;;;9.83;64.24
71105;BME280;58760;48.716;8.962;2023-03-18T07:43:53;96155.75;;;9.83;64.57
71105;BME280;58760;48.716;8.962;2023-03-18T07:46:19;96158.72;;;9.88;64.38
71105;BME280;58760;48.716;8.962;2023-03-18T07:48:46;96161.38;;;10.03;64.06
71105;BME280;58760;48.716;8.962;2023-03-18T07:51:12;96153.38;;;10.11;64.64
71105;BME280;58760;48.716;8.962;2023-03-18T07:53:39;96154.38;;;10.32;63.11
71105;BME280;58760;48.716;8.962;2023-03-18T07:56:05;96156.59;;;10.43;63.38
71105;BME280;58760;48.716;8.962;2023-03-18T07:58:32;96150.47;;;10.87;62.34
71105;BME280;58760;48.716;8.962;2023-03-18T08:00:58;96153.66;;;10.97;61.17
71105;BME280;58760;48.716;8.962;2023-03-18T08:03:24;96156.19;;;11.20;59.98
71105;BME280;58760;48.716;8.962;2023-03-18T08:05:49;96158.84;;;11.34;59.77
71105;BME280;58760;48.716;8.962;2023-03-18T08:08:15;96160.00;;;11.68;57.42
71105;BME280;58760;48.716;8.962;2023-03-18T08:10:40;96157.97;;;11.84;54.91
71105;BME280;58760;48.716;8.962;2023-03-18T08:13:06;96154.03;;;12.01;54.90
71105;BME280;58760;48.716;8.962;2023-03-18T08:15:32;96160.63;;;12.05;55.26
71105;BME280;58760;48.716;8.962;2023-03-18T08:17:57;96156.47;;;12.24;54.56
71105;BME280;58760;48.716;8.962;2023-03-18T08:20:23;96159.44;;;12.36;52.15
71105;BME280;58760;48.716;8.962;2023-03-18T08:22:48;96158.56;;;12.56;49.14
71105;BME280;58760;48.716;8.962;2023-03-18T08:25:14;96161.72;;;12.67;50.04
71105;BME280;58760;48.716;8.962;2023-03-18T08:27:40;96152.94;;;12.73;51.39
71105;BME280;58760;48.716;8.962;2023-03-18T08:30:06;96154.63;;;12.80;51.58
71105;BME280;58760;48.716;8.962;2023-03-18T08:32:32;96157.75;;;12.84;51.69
71105;BME280;58760;48.716;8.962;2023-03-18T08:34:58;96162.41;;;12.82;51.69
71105;BME280;58760;48.716;8.962;2023-03-18T08:37:23;96149.19;;;12.95;51.69
71105;BME280;58760;48.716;8.962;2023-03-18T08:39:48;96153.31;;;13.04;49.70
71105;BME280;58760;48.716;8.962;2023-03-18T08:42:14;96149.72;;;13.12;50.43
71105;BME280;58760;48.716;8.962;2023-03-18T08:44:40;96152.66;;;13.23;48.10
71105;BME280;58760;48.716;8.962;2023-03-18T08:47:07;96151.88;;;13.36;51.45
71105;BME280;58760;48.716;8.962;2023-03-18T08:49:33;96147.38;;;13.43;51.00
71105;BME280;58760;48.716;8.962;2023-03-18T08:51:58;96146.56;;;13.42;49.92
71105;BME280;58760;48.716;8.962;2023-03-18T08:54:24;96144.94;;;13.48;49.72
71105;BME280;58760;48.716;8.962;2023-03-18T08:56:49;96137.97;;;13.53;48.67
71105;BME280;58760;48.716;8.962;2023-03-18T08:59:17;96141.25;;;13.42;48.03
71105;BME280;58760;48.716;8.962;2023-03-18T09:01:42;96140.88;;;13.58;48.67
71105;BME280;58760;48.716;8.962;2023-03-18T09:04:07;96144.97;;;13.61;50.08
71105;BME280;58760;48.716;8.962;2023-03-18T09:06:33;96139.66;;;13.61;48.86
71105;BME280;58760;48.716;8.962;2023-03-18T09:08:59;96139.44;;;13.62;48.92
71105;BME280;58760;48.716;8.962;2023-03-18T09:11:24;96139.47;;;13.76;49.63
71105;BME280;58760;48.716;8.962;2023-03-18T09:13:50;96143.41;;;13.99;49.24
71105;BME280;58760;48.716;8.962;2023-03-18T09:16:16;96142.38;;;13.94;46.95
71105;BME280;58760;48.716;8.962;2023-03-18T09:18:42;96125.16;;;14.09;47.72
71105;BME280;58760;48.716;8.962;2023-03-18T09:21:07;96130.69;;;14.14;46.65
71105;BME280;58760;48.716;8.962;2023-03-18T09:23:34;96123.72;;;14.07;47.37
71105;BME280;58760;48.716;8.962;2023-03-18T09:25:59;96121.47;;;14.17;47.96
71105;BME280;58760;48.716;8.962;2023-03-18T09:28:25;96125.16;;;14.29;46.30
71105;BME280;58760;48.716;8.962;2023-03-18T09:30:50;96122.50;;;14.23;46.11
71105;BME280;58760;48.716;8.962;2023-03-18T09:33:16;96121.66;;;14.09;45.24
71105;BME280;58760;48.716;8.962;2023-03-18T09:35:42;96122.91;;;14.20;47.37
71105;BME280;58760;48.716;8.962;2023-03-18T09:38:14;96124.56;;;14.21;47.62
71105;BME280;58760;48.716;8.962;2023-03-18T09:40:54;96132.94;;;14.31;46.69
71105;BME280;58760;48.716;8.962;2023-03-18T09:46:09;96117.56;;;14.26;45.85
71105;BME280;58760;48.716;8.962;2023-03-18T09:51:47;96119.25;;;14.40;46.30
71105;BME280;58760;48.716;8.962;2023-03-18T09:54:48;96115.72;;;14.59;45.16
71105;BME280;58760;48.716;8.962;2023-03-18T09:57:22;96113.84;;;14.66;44.80
71105;BME280;58760;48.716;8.962;2023-03-18T09:59:54;96113.06;;;14.59;45.37
71105;BME280;58760;48.716;8.962;2023-03-18T10:02:46;96105.00;;;14.86;44.51
71105;BME280;58760;48.716;8.962;2023-03-18T10:05:16;96109.09;;;14.88;44.88
71105;BME280;58760;48.716;8.962;2023-03-18T10:07:46;96107.22;;;15.02;44.64
71105;BME280;58760;48.716;8.962;2023-03-18T10:10:49;96105.91;;;15.17;44.03
71105;BME280;58760;48.716;8.962;2023-03-18T10:16:21;96103.28;;;15.55;43.39
71105;BME280;58760;48.716;8.962;2023-03-18T10:18:48;96105.38;;;15.47;42.35
71105;BME280;58760;48.716;8.962;2023-03-18T10:24:16;96103.72;;;15.52;42.67
71105;BME280;58760;48.716;8.962;2023-03-18T10:26:51;96106.94;;;15.61;40.40
71105;BME280;58760;48.716;8.962;2023-03-18T10:32:47;96119.69;;;15.65;41.81
71105;BME280;58760;48.716;8.962;2023-03-18T10:35:53;96110.88;;;15.58;41.10
71105;BME280;58760;48.716;8.962;2023-03-18T10:38:27;96112.41;;;15.79;43.51
71105;BME280;58760;48.716;8.962;2023-03-18T10:40:54;96103.25;;;15.93;43.41
71105;BME280;58760;48.716;8.962;2023-03-18T10:43:26;96098.72;;;15.94;42.41
71105;BME280;58760;48.716;8.962;2023-03-18T10:46:01;96103.63;;;15.97;42.72
71105;BME280;58760;48.716;8.962;2023-03-18T10:48:36;96111.06;;;15.95;41.47
71105;BME280;58760;48.716;8.962;2023-03-18T10:51:18;96102.69;;;15.85;41.09
71105;BME280;58760;48.716;8.962;2023-03-18T10:54:05;96101.28;;;15.82;42.16
71105;BME280;58760;48.716;8.962;2023-03-18T10:56:34;96098.94;;;15.92;41.47
71105;BME280;58760;48.716;8.962;2023-03-18T10:59:04;96102.22;;;15.94;42.68
71105;BME280;58760;48.716;8.962;2023-03-18T11:01:30;96099.69;;;16.06;38.78
71105;BME280;58760;48.716;8.962;2023-03-18T11:04:00;96087.53;;;16.03;42.96
71105;BME280;58760;48.716;8.962;2023-03-18T11:06:41;96084.69;;;16.23;44.78
71105;BME280;58760;48.716;8.962;2023-03-18T11:09:19;96080.44;;;16.40;45.73
71105;BME280;58760;48.716;8.962;2023-03-18T11:11:46;96084.63;;;16.54;45.11
71105;BME280;58760;48.716;8.962;2023-03-18T11:14:27;96074.03;;;16.66;40.81
71105;BME280;58760;48.716;8.962;2023-03-18T11:16:59;96082.38;;;16.58;40.13
71105;BME280;58760;48.716;8.962;2023-03-18T11:22:02;96066.69;;;16.80;40.57
71105;BME280;58760;48.716;8.962;2023-03-18T11:24:29;96068.66;;;16.66;39.99
71105;BME280;58760;48.716;8.962;2023-03-18T11:27:28;96074.63;;;16.68;38.26
71105;BME280;58760;48.716;8.962;2023-03-18T11:29:59;96062.41;;;16.72;40.48
71105;BME280;58760;48.716;8.962;2023-03-18T11:32:28;96063.78;;;16.99;38.90
71105;BME280;58760;48.716;8.962;2023-03-18T11:35:00;96062.09;;;17.35;40.53
71105;BME280;58760;48.716;8.962;2023-03-18T11:37:34;96052.31;;;17.58;39.30
71105;BME280;58760;48.716;8.962;2023-03-18T11:42:38;96061.19;;;17.59;39.25
71105;BME280;58760;48.716;8.962;2023-03-18T11:47:44;96054.34;;;17.74;37.40
71105;BME280;58760;48.716;8.962;2023-03-18T11:50:18;96042.22;;;17.84;36.44
71105;BME280;58760;48.716;8.962;2023-03-18T11:52:56;96056.63;;;18.12;38.42
71105;BME280;58760;48.716;8.962;2023-03-18T11:55:43;96044.34;;;19.77;32.12
71105;BME280;58760;48.716;8.962;2023-03-18T12:06:21;96013.50;;;23.39;29.40
71105;BME280;58760;48.716;8.962;2023-03-18T12:09:00;96013.13;;;23.11;28.95
71105;BME280;58760;48.716;8.962;2023-03-18T12:11:38;96007.22;;;23.24;28.62
71105;BME280;58760;48.716;8.962;2023-03-18T12:17:14;96006.88;;;23.15;27.59
71105;BME280;58760;48.716;8.962;2023-03-18T12:22:38;96002.53;;;24.02;27.11
71105;BME280;58760;48.716;8.962;2023-03-18T12:36:09;95993.88;;;24.40;27.07
71105;BME280;58760;48.716;8.962;2023-03-18T12:44:50;95982.34;;;25.09;25.54
71105;BME280;58760;48.716;8.962;2023-03-18T12:47:27;95977.06;;;26.83;25.39
71105;BME280;58760;48.716;8.962;2023-03-18T12:50:02;95968.56;;;28.12;22.42
71105;BME280;58760;48.716;8.962;2023-03-18T12:52:40;95975.53;;;27.43;21.94
71105;BME280;58760;48.716;8.962;2023-03-18T12:57:48;95968.97;;;28.37;23.07
71105;BME280;58760;48.716;8.962;2023-03-18T13:00:26;95962.34;;;28.57;22.04
71105;BME280;58760;48.716;8.962;2023-03-18T13:03:00;95966.84;;;28.80;21.45
71105;BME280;58760;48.716;8.962;2023-03-18T13:05:45;95958.47;;;29.31;20.54
71105;BME280;58760;48.716;8.962;2023-03-18T13:10:40;95955.16;;;27.35;21.74
71105;BME280;58760;48.716;8.962;2023-03-18T13:13:08;95952.16;;;27.37;21.99
71105;BME280;58760;48.716;8.962;2023-03-18T13:15:38;95953.47;;;28.33;19.73
71105;BME280;58760;48.716;8.962;2023-03-18T13:20:40;95957.28;;;27.81;18.88
71105;BME280;58760;48.716;8.962;2023-03-18T13:23:29;95950.06;;;28.09;18.89
71105;BME280;58760;48.716;8.962;2023-03-18T13:26:10;95959.44;;;26.75;20.81
71105;BME280;58760;48.716;8.962;2023-03-18T13:29:07;95960.91;;;26.91;19.99
71105;BME280;58760;48.716;8.962;2023-03-18T13:31:51;95964.66;;;25.16;21.08
71105;BME280;58760;48.716;8.962;2023-03-18T13:34:29;95969.28;;;25.70;20.43
71105;BME280;58760;48.716;8.962;2023-03-18T13:43:12;95966.22;;;24.23;23.79
71105;BME280;58760;48.716;8.962;2023-03-18T13:45:41;95967.81;;;23.78;22.52
71105;BME280;58760;48.716;8.962;2023-03-18T13:48:20;95966.81;;;23.07;22.39
71105;BME280;58760;48.716;8.962;2023-03-18T13:50:48;95965.19;;;22.17;22.96
71105;BME280;58760;48.716;8.962;2023-03-18T13:53:28;95961.59;;;22.07;24.45
71105;BME280;58760;48.716;8.962;2023-03-18T13:58:25;95967.28;;;23.76;24.31
71105;BME280;58760;48.716;8.962;2023-03-18T14:03:26;95945.56;;;24.52;22.76
71105;BME280;58760;48.716;8.962;2023-03-18T14:13:48;95956.72;;;24.00;24.85
71105;BME280;58760;48.716;8.962;2023-03-18T14:16:15;95957.41;;;23.30;22.88
71105;BME280;58760;48.716;8.962;2023-03-18T14:19:20;95950.66;;;22.70;23.87
71105;BME280;58760;48.716;8.962;2023-03-18T14:21:52;95949.31;;;22.31;23.66
71105;BME280;58760;48.716;8.962;2023-03-18T14:29:41;95962.91;;;21.19;24.86
71105;BME280;58760;48.716;8.962;2023-03-18T14:34:59;95947.19;;;22.33;25.17
71105;BME280;58760;48.716;8.962;2023-03-18T14:37:30;95940.88;;;24.93;22.54
71105;BME280;58760;48.716;8.962;2023-03-18T14:40:13;95941.41;;;25.44;21.14
71105;BME280;58760;48.716;8.962;2023-03-18T14:42:48;95937.94;;;24.59;22.84
71105;BME280;58760;48.716;8.962;2023-03-18T14:47:51;95931.41;;;23.24;25.27
71105;BME280;58760;48.716;8.962;2023-03-18T14:50:39;95938.72;;;23.38;28.83
71105;BME280;58760;48.716;8.962;2023-03-18T14:53:34;95932.72;;;23.11;29.91
71105;BME280;58760;48.716;8.962;2023-03-18T14:56:03;95941.16;;;22.63;31.44
71105;BME280;58760;48.716;8.962;2023-03-18T14:58:29;95931.81;;;22.85;30.86
71105;BME280;58760;48.716;8.962;2023-03-18T15:01:13;95933.50;;;22.50;31.30